»·PEaware :: N333ZS KSQL-KMRY

N333ZS :: KSQL-KMRY

FLIGHT INFORMATION

Flight Status: Arrived
Operator: Privately registered:
United States
More flights under this callsign
Pilot: Judd H. (29974)
Aircraft: CESSNA 182 SKYLANE
(C182)
More flights by this aircraft type
Origin: KSQL San Carlos
United States
Destination: KMRY Monterey Peninsula
United States
More flights between these airports :: More routes between these airports
Route: OSI V25 SNS
File this flight plan on PilotEdge
Remarks:
Altitude:
(Current/Filed)
7,000ft
Speed:
(Current/Filed)
120kts
Departed: 24-Oct-20 06:20 PM
Arrived: 24-Oct-20 07:11 PM
Distance/Time
Traveled:
59nm/0:51
Distance/Time
To Go:
Arrived

Flight Plot

Page will automatically refresh every two minutes.


Map Options




Map Legend


Flown Route
Filed Route
Departure Airport
Arrival Airport
Navaid (VOR, NDB)
Fix

Horizontal Profiles

Position Reports

Time Latitude Longitude Heading Altitude Ground
Speed
24-Oct-20 17:49 37.510305 -122.249481 315 8ft 0kts
24-Oct-20 17:50 37.510305 -122.249481 315 8ft 0kts
24-Oct-20 17:51 37.510305 -122.249481 315 8ft 0kts
24-Oct-20 17:52 37.510305 -122.249481 315 8ft 0kts
24-Oct-20 17:53 37.510305 -122.249481 315 8ft 0kts
24-Oct-20 17:54 37.510305 -122.249481 315 8ft 0kts
24-Oct-20 17:55 37.510305 -122.249481 315 8ft 0kts
24-Oct-20 17:56 37.510305 -122.249481 315 8ft 0kts
24-Oct-20 17:57 37.510305 -122.249481 315 8ft 0kts
24-Oct-20 17:58 37.510305 -122.249481 315 8ft 0kts
24-Oct-20 17:59 37.510305 -122.249481 315 8ft 0kts
24-Oct-20 18:00 37.510305 -122.249481 315 8ft 0kts
24-Oct-20 18:01 37.510305 -122.249481 315 8ft 0kts
24-Oct-20 18:02 37.510328 -122.249516 308 8ft 0kts
24-Oct-20 18:03 37.510329 -122.249517 308 8ft 0kts
24-Oct-20 18:04 37.510330 -122.249518 308 8ft 0kts
24-Oct-20 18:05 37.510330 -122.249519 308 8ft 0kts
24-Oct-20 18:06 37.510331 -122.249520 308 8ft 0kts
24-Oct-20 18:07 37.510332 -122.249521 308 8ft 0kts
24-Oct-20 18:08 37.510332 -122.249522 308 8ft 0kts
24-Oct-20 18:09 37.510333 -122.249523 308 8ft 0kts
24-Oct-20 18:10 37.510334 -122.249524 308 8ft 0kts
24-Oct-20 18:11 37.510334 -122.249525 308 8ft 0kts
24-Oct-20 18:12 37.510335 -122.249526 307 8ft 0kts
24-Oct-20 18:13 37.510336 -122.249527 307 8ft 0kts
24-Oct-20 18:14 37.510595 -122.249027 137 8ft 4kts
24-Oct-20 18:15 37.509495 -122.247539 124 8ft 6kts
24-Oct-20 18:16 37.509177 -122.247220 144 8ft 0kts
24-Oct-20 18:17 37.509176 -122.247219 144 8ft 0kts
24-Oct-20 18:18 37.509213 -122.246640 18 8ft 6kts
24-Oct-20 18:19 37.512270 -122.250086 304 30ft 72kts
24-Oct-20 18:20 37.521219 -122.274448 189 989ft 100kts
24-Oct-20 18:21 37.489883 -122.267795 185 1776ft 112kts
24-Oct-20 18:22 37.458902 -122.271268 190 2618ft 113kts
24-Oct-20 18:23 37.427412 -122.276222 193 3366ft 111kts
24-Oct-20 18:24 37.395835 -122.279547 182 3927ft 116kts
24-Oct-20 18:25 37.367371 -122.261236 146 4581ft 116kts
24-Oct-20 18:26 37.341550 -122.237389 147 5232ft 116kts
24-Oct-20 18:27 37.314576 -122.214711 148 5835ft 116kts
24-Oct-20 18:28 37.286771 -122.193323 146 6381ft 118kts
24-Oct-20 18:29 37.261515 -122.166527 136 6906ft 119kts
24-Oct-20 18:30 37.235570 -122.134902 142 6969ft 138kts
24-Oct-20 18:31 37.199492 -122.119296 169 6961ft 139kts
24-Oct-20 18:32 37.161485 -122.109977 172 6976ft 138kts
24-Oct-20 18:33 37.123218 -122.102085 172 6978ft 138kts
24-Oct-20 18:34 37.085039 -122.095013 173 6978ft 139kts
24-Oct-20 18:35 37.047492 -122.086981 170 7066ft 138kts
24-Oct-20 18:36 37.011612 -122.070846 147 7070ft 140kts
24-Oct-20 18:37 36.983224 -122.036989 134 7071ft 141kts
24-Oct-20 18:38 36.956488 -122.000852 131 7071ft 142kts
24-Oct-20 18:39 36.929997 -121.964179 132 7064ft 139kts
24-Oct-20 18:40 36.903960 -121.928168 132 7070ft 138kts
24-Oct-20 18:41 36.878231 -121.892608 132 7072ft 138kts
24-Oct-20 18:42 36.852390 -121.856925 132 7075ft 137kts
24-Oct-20 18:43 36.826843 -121.821697 132 7072ft 135kts
24-Oct-20 18:44 36.801747 -121.787118 132 7075ft 134kts
24-Oct-20 18:45 36.775180 -121.754591 136 7076ft 134kts
24-Oct-20 18:46 36.749797 -121.720333 130 7075ft 134kts
24-Oct-20 18:47 36.725163 -121.685453 132 7076ft 134kts
24-Oct-20 18:48 36.699803 -121.651433 135 7076ft 134kts
24-Oct-20 18:49 36.673279 -121.618620 135 7076ft 134kts
24-Oct-20 18:50 36.643353 -121.591856 146 7086ft 133kts
24-Oct-20 18:51 36.609568 -121.571883 155 7077ft 134kts
24-Oct-20 18:52 36.574580 -121.552025 156 6792ft 140kts
24-Oct-20 18:53 36.539976 -121.534677 161 6234ft 129kts
24-Oct-20 18:54 36.508660 -121.520326 156 6172ft 107kts
24-Oct-20 18:55 36.481095 -121.504544 154 6146ft 111kts
24-Oct-20 18:56 36.470313 -121.475014 57 6106ft 114kts
24-Oct-20 18:57 36.466286 -121.447638 197 6033ft 116kts
24-Oct-20 18:58 36.464784 -121.480977 288 6113ft 108kts
24-Oct-20 18:59 36.473499 -121.516954 292 5990ft 108kts
24-Oct-20 19:00 36.485445 -121.550950 293 5497ft 106kts
24-Oct-20 19:01 36.497620 -121.583828 294 4973ft 104kts
24-Oct-20 19:02 36.509014 -121.617029 288 4623ft 97kts
24-Oct-20 19:04 36.519483 -121.649535 294 4230ft 102kts
24-Oct-20 19:05 36.531640 -121.681752 292 3568ft 101kts
24-Oct-20 19:06 36.542665 -121.714041 291 2894ft 99kts
24-Oct-20 19:07 36.552958 -121.744519 293 2359ft 92kts
24-Oct-20 19:08 36.562764 -121.773780 293 1817ft 91kts
24-Oct-20 19:09 36.572801 -121.802649 293 1126ft 89kts
24-Oct-20 19:10 36.581716 -121.828870 294 361ft 71kts
24-Oct-20 19:11 36.587097 -121.844687 291 208ft 20kts
24-Oct-20 19:12 36.585773 -121.846114 111 208ft 12kts
24-Oct-20 19:13 36.585478 -121.845764 199 208ft 0kts
24-Oct-20 19:14 36.585478 -121.845764 199 208ft 0kts
24-Oct-20 19:15 36.585478 -121.845764 199 208ft 0kts
24-Oct-20 19:16 36.585478 -121.845764 199 208ft 0kts
24-Oct-20 19:17 36.585478 -121.845764 199 210ft 0kts
24-Oct-20 19:18 36.585478 -121.845764 199 210ft 0kts
24-Oct-20 19:19 36.585478 -121.845764 199 210ft 0kts
24-Oct-20 19:19 36.585478 -121.845764 199 210ft 0kts

Navigation Log

Ident Type
Flight plan parsing failed, navigation log unavailable